9V9

Chamberlain Municipal Airport

Chamberlain, South Dakota, USA
METAR K9V9 210935Z AUTO 00000KT 10SM CLR 17/17 A3008 RMK AO2 T01740174
Observed Flight Rules
Jul-21 @ 09:35 UTC (11 minutes ago) Visual Flight Rules
Visibility Clouds
10 miles
  • Clear skies
Temperatures Readings
Current 17°C / 63°F
Dewpoint 17°C / 63°F
Humidity 100%
Altimeter 30.08" Hg
Pressure 1019 hPa
Elevation 519
METAR K9V9 210935Z AUTO 00000KT 10SM CLR 17/17 A3008 RMK AO2 T01740174
Observed Flight Rules
Jul-21 @ 09:35 UTC
(11 minutes ago)
VFR
Clouds
  • Clear skies
Temperature Dewpoint
17°C / 63°F 17°C / 63°F
Humidity Altimeter Pressure
100% 30.08" Hg 1019 hPa